createdAt,value
2023-05-11T00:00:30.907Z,510.85
2023-05-11T00:01:33.999Z,575.22
2023-05-11T00:02:38.816Z,573.95
2023-05-11T00:03:41.075Z,595.42
2023-05-11T00:04:46.290Z,869.85
2023-05-11T00:05:49.379Z,819.15
2023-05-11T00:06:54.278Z,985.03
2023-05-11T00:07:56.337Z,969.72
2023-05-11T00:09:01.004Z,1012.67
2023-05-11T00:10:06.757Z,1071.03
2023-05-11T00:11:11.792Z,1068.07
2023-05-11T00:12:14.421Z,1026.90
2023-05-11T00:13:20.417Z,1024.45
2023-05-11T00:14:22.533Z,1038.88
2023-05-11T00:15:27.459Z,1060.28
2023-05-11T00:16:29.893Z,1061.63
2023-05-11T00:17:34.647Z,1068.63
2023-05-11T00:18:36.802Z,1198.38
2023-05-11T00:19:41.534Z,1138.43
2023-05-11T00:20:43.582Z,1156.28
2023-05-11T00:21:48.208Z,900.00
2023-05-11T00:22:50.280Z,1031.97
2023-05-11T00:23:55.113Z,1000.50
2023-05-11T00:24:57.102Z,1098.60
2023-05-11T00:26:04.375Z,853.08
2023-05-11T00:27:06.643Z,1065.28
2023-05-11T00:28:11.358Z,1081.82
2023-05-11T00:29:13.417Z,967.75
2023-05-11T00:30:18.646Z,1052.15
2023-05-11T00:31:20.870Z,1047.30
2023-05-11T00:32:25.695Z,1077.88
2023-05-11T00:33:27.751Z,1143.38
2023-05-11T00:34:32.849Z,1132.43
2023-05-11T00:35:34.869Z,1083.78
2023-05-11T00:36:41.256Z,1052.30
2023-05-11T00:37:43.516Z,1217.63
2023-05-11T00:38:48.179Z,1064.07
2023-05-11T00:39:50.244Z,1128.13
2023-05-11T00:40:55.565Z,1121.43
2023-05-11T00:42:01.005Z,1074.90
2023-05-11T00:43:05.623Z,1056.28
2023-05-11T00:44:07.721Z,1379.90
2023-05-11T00:45:12.811Z,1141.47
2023-05-11T00:46:14.902Z,745.25
2023-05-11T00:47:19.725Z,720.03
2023-05-11T00:48:21.884Z,1043.60
2023-05-11T00:49:26.965Z,1001.42
2023-05-11T00:50:29.258Z,982.45
2023-05-11T00:51:34.963Z,405.73
2023-05-11T00:52:37.241Z,994.72
2023-05-11T00:53:42.050Z,1018.47
2023-05-11T00:54:44.461Z,1011.03
2023-05-11T00:55:49.204Z,1099.68
2023-05-11T00:56:51.224Z,1028.63
2023-05-11T00:57:58.462Z,1024.60
2023-05-11T00:59:00.899Z,1079.88
2023-05-11T01:00:05.810Z,1102.43
2023-05-11T01:01:08.284Z,1154.18
2023-05-11T01:02:13.297Z,912.70
2023-05-11T01:03:16.037Z,929.53
2023-05-11T01:04:20.925Z,1271.72
2023-05-11T01:05:23.037Z,1126.85
2023-05-11T01:06:34.798Z,1131.18
2023-05-11T01:07:44.307Z,1119.70
2023-05-11T01:08:52.340Z,1100.63
2023-05-11T01:10:01.043Z,1091.13
2023-05-11T01:11:14.004Z,1151.30
2023-05-11T01:12:23.827Z,1193.43
2023-05-11T01:13:36.596Z,1022.65
2023-05-11T01:14:43.981Z,1061.18
2023-05-11T01:15:53.432Z,1065.18
2023-05-11T01:16:59.644Z,955.38
2023-05-11T01:18:14.431Z,1178.78
2023-05-11T01:19:24.800Z,1025.90
2023-05-11T01:20:32.875Z,1702.05
2023-05-11T01:21:36.073Z,1010.20
2023-05-11T01:22:58.628Z,1107.90
2023-05-11T01:24:19.637Z,1171.82
2023-05-11T01:25:40.616Z,1104.40
2023-05-11T01:27:26.924Z,1103.47
2023-05-11T01:28:53.251Z,1066.13
2023-05-11T01:30:27.630Z,1030.00
2023-05-11T01:31:32.339Z,1262.10
2023-05-11T01:32:41.422Z,978.17
2023-05-11T01:33:50.203Z,403.52
2023-05-11T01:35:03.156Z,393.30
2023-05-11T01:36:09.326Z,471.48
2023-05-11T01:37:17.047Z,523.83
2023-05-11T01:38:22.732Z,558.95
2023-05-11T01:39:33.355Z,518.67
2023-05-11T01:40:37.616Z,689.70
2023-05-11T01:41:44.934Z,440.35
2023-05-11T01:42:50.318Z,579.97
2023-05-11T01:43:58.621Z,530.60
2023-05-11T01:45:02.223Z,589.38
2023-05-11T01:46:12.100Z,574.55
2023-05-11T01:47:17.576Z,580.28
2023-05-11T01:48:27.043Z,459.50
2023-05-11T01:49:31.346Z,475.85
2023-05-11T01:50:37.426Z,367.83
2023-05-11T01:51:42.365Z,371.77
2023-05-11T01:52:49.798Z,490.50
2023-05-11T01:53:53.550Z,529.00
2023-05-11T01:55:00.370Z,475.23
2023-05-11T01:56:04.109Z,443.63
2023-05-11T01:57:10.053Z,600.58
2023-05-11T01:58:15.269Z,570.63
2023-05-11T01:59:21.362Z,540.88
2023-05-11T02:00:24.223Z,652.50
2023-05-11T02:01:32.696Z,491.75
2023-05-11T02:02:36.999Z,486.63
2023-05-11T02:03:44.366Z,613.83
2023-05-11T02:04:48.053Z,532.05
2023-05-11T02:05:55.225Z,453.58
2023-05-11T02:06:59.338Z,477.27
2023-05-11T02:08:07.397Z,494.88
2023-05-11T02:09:12.461Z,465.02
2023-05-11T02:10:19.506Z,351.05
2023-05-11T02:11:24.200Z,466.08
2023-05-11T02:12:30.534Z,395.05
2023-05-11T02:13:34.371Z,260.60
2023-05-11T02:14:40.720Z,438.58
2023-05-11T02:15:45.295Z,437.73
2023-05-11T02:16:53.615Z,425.95
2023-05-11T02:17:56.859Z,382.85
2023-05-11T02:19:02.969Z,433.55
2023-05-11T02:20:08.338Z,589.28
2023-05-11T02:21:13.844Z,494.30
2023-05-11T02:22:16.885Z,746.05
2023-05-11T02:23:23.995Z,665.67
2023-05-11T02:24:29.233Z,722.42
2023-05-11T02:25:34.495Z,747.13
2023-05-11T02:26:36.667Z,625.83
2023-05-11T02:27:42.048Z,744.72
2023-05-11T02:28:44.252Z,734.03
2023-05-11T02:29:49.415Z,674.53
2023-05-11T02:30:55.813Z,733.63
2023-05-11T02:32:09.484Z,675.55
2023-05-11T02:33:14.952Z,635.17
2023-05-11T02:34:24.651Z,839.40
2023-05-11T02:35:30.156Z,479.50
2023-05-11T02:36:36.932Z,378.33
2023-05-11T02:37:43.769Z,417.02
2023-05-11T02:38:50.518Z,458.20
2023-05-11T02:40:02.897Z,285.67
2023-05-11T02:41:12.171Z,445.45
2023-05-11T02:42:18.710Z,508.38
2023-05-11T02:43:27.357Z,408.67
2023-05-11T02:44:35.746Z,494.40
2023-05-11T02:45:41.870Z,445.23
2023-05-11T02:46:47.178Z,422.50
2023-05-11T02:47:56.961Z,461.35
2023-05-11T02:49:02.847Z,401.60
2023-05-11T02:50:09.899Z,442.23
2023-05-11T02:51:14.474Z,546.30
2023-05-11T02:52:20.537Z,477.60
2023-05-11T02:53:27.889Z,333.83
2023-05-11T02:54:33.994Z,396.35
2023-05-11T02:55:36.066Z,554.38
2023-05-11T02:56:41.414Z,385.20
2023-05-11T02:57:44.123Z,403.63
2023-05-11T02:58:49.234Z,463.80
2023-05-11T02:59:52.050Z,407.83
2023-05-11T03:00:57.285Z,407.88
2023-05-11T03:02:00.889Z,415.25
2023-05-11T03:03:08.714Z,387.10
2023-05-11T03:04:10.957Z,461.60
2023-05-11T03:05:15.747Z,843.75
2023-05-11T03:06:17.850Z,710.55
2023-05-11T03:07:22.541Z,701.75
2023-05-11T03:08:25.031Z,598.45
2023-05-11T03:09:29.792Z,703.80
2023-05-11T03:10:32.369Z,484.10
2023-05-11T03:11:37.241Z,451.35
2023-05-11T03:12:39.458Z,487.13
2023-05-11T03:13:45.340Z,476.65
2023-05-11T03:14:48.235Z,434.85
2023-05-11T03:15:54.316Z,641.15
2023-05-11T03:16:57.431Z,645.40
2023-05-11T03:18:03.692Z,604.75
2023-05-11T03:19:09.630Z,562.50
2023-05-11T03:20:15.220Z,908.72
2023-05-11T03:21:21.527Z,739.13
2023-05-11T03:22:27.284Z,656.83
2023-05-11T03:23:30.899Z,626.95
2023-05-11T03:24:36.442Z,618.80
2023-05-11T03:25:41.304Z,662.80
2023-05-11T03:26:44.305Z,587.47
2023-05-11T03:27:49.519Z,581.75
2023-05-11T03:28:52.773Z,649.53
2023-05-11T03:29:59.777Z,605.78
2023-05-11T03:31:01.941Z,558.45
2023-05-11T03:32:07.113Z,725.95
2023-05-11T03:33:09.844Z,674.85
2023-05-11T03:34:17.213Z,687.97
2023-05-11T03:37:22.077Z,854.65
2023-05-11T03:38:24.619Z,585.20
2023-05-11T03:39:32.768Z,630.30
2023-05-11T03:40:37.441Z,506.17
2023-05-11T03:41:43.400Z,596.65
2023-05-11T03:42:46.724Z,713.67
2023-05-11T03:43:54.151Z,461.50
2023-05-11T03:44:59.880Z,585.60
2023-05-11T03:46:06.830Z,543.92
2023-05-11T03:47:10.630Z,555.13
2023-05-11T03:48:18.641Z,590.67
2023-05-11T03:49:24.641Z,515.60
2023-05-11T03:50:30.908Z,671.17
2023-05-11T03:51:34.676Z,603.55
2023-05-11T03:52:40.333Z,532.53
2023-05-11T03:53:42.618Z,574.42
2023-05-11T03:54:47.407Z,555.92
2023-05-11T03:55:50.840Z,658.03
2023-05-11T03:56:55.566Z,605.10
2023-05-11T03:57:57.909Z,636.17
2023-05-11T03:59:02.746Z,662.45
2023-05-11T04:00:06.716Z,489.40
2023-05-11T04:01:11.893Z,543.13
2023-05-11T04:02:14.224Z,716.42
2023-05-11T04:03:19.113Z,756.92
2023-05-11T04:04:28.964Z,736.60
2023-05-11T04:05:33.695Z,681.13
2023-05-11T04:06:35.873Z,642.92
2023-05-11T04:07:41.932Z,745.42
2023-05-11T04:08:44.357Z,680.90
2023-05-11T04:09:49.066Z,592.85
2023-05-11T04:10:51.126Z,609.83
2023-05-11T04:11:55.941Z,761.58
2023-05-11T04:12:58.191Z,591.38
2023-05-11T04:14:02.851Z,575.05
2023-05-11T04:15:05.648Z,646.92
2023-05-11T04:16:10.972Z,590.08
2023-05-11T04:17:13.044Z,671.90
2023-05-11T04:18:17.757Z,697.50
2023-05-11T04:19:20.207Z,559.70
2023-05-11T04:20:27.740Z,1694.90
2023-05-11T04:21:29.849Z,449.33
2023-05-11T04:22:34.537Z,551.42
2023-05-11T04:23:37.369Z,570.00
2023-05-11T04:24:42.253Z,578.58
2023-05-11T04:25:44.349Z,596.60
2023-05-11T04:26:49.053Z,604.45
2023-05-11T04:27:51.138Z,596.17
2023-05-11T04:28:55.893Z,610.35
2023-05-11T04:29:57.944Z,535.85
2023-05-11T04:31:02.735Z,584.85
2023-05-11T04:32:05.367Z,498.63
2023-05-11T04:33:10.101Z,559.75
2023-05-11T04:34:12.166Z,615.15
2023-05-11T04:35:16.777Z,726.03
2023-05-11T04:36:22.472Z,552.45
2023-05-11T04:37:27.117Z,642.42
2023-05-11T04:38:29.244Z,608.05
2023-05-11T04:39:34.438Z,596.67
2023-05-11T04:40:36.693Z,606.22
2023-05-11T04:41:41.343Z,552.42
2023-05-11T04:42:43.403Z,587.22
2023-05-11T04:43:48.041Z,591.40
2023-05-11T04:44:56.345Z,555.22
2023-05-11T04:45:59.404Z,572.35
2023-05-11T04:47:04.095Z,628.80
2023-05-11T04:48:06.935Z,552.30
2023-05-11T04:49:11.634Z,574.85
2023-05-11T04:50:13.827Z,673.97
2023-05-11T04:51:18.764Z,578.58
2023-05-11T04:52:23.470Z,698.90
2023-05-11T04:53:28.116Z,629.28
2023-05-11T04:54:31.345Z,540.92
2023-05-11T04:55:36.041Z,683.85
2023-05-11T04:56:40.818Z,575.70
2023-05-11T04:57:45.488Z,640.10
2023-05-11T04:58:47.596Z,605.17
2023-05-11T04:59:52.289Z,572.20
2023-05-11T05:00:54.406Z,538.35
2023-05-11T05:01:59.202Z,577.08
2023-05-11T05:03:01.262Z,549.30
2023-05-11T05:04:06.389Z,543.67
2023-05-11T05:05:09.577Z,571.20
2023-05-11T05:06:14.252Z,660.80
2023-05-11T05:07:16.294Z,690.00
2023-05-11T05:08:23.545Z,633.10
2023-05-11T05:09:25.694Z,734.58
2023-05-11T05:10:30.413Z,633.63
2023-05-11T05:11:32.458Z,558.33
2023-05-11T05:12:37.115Z,667.83
2023-05-11T05:13:39.171Z,659.33
2023-05-11T05:14:43.828Z,592.47
2023-05-11T05:15:45.869Z,600.78
2023-05-11T05:16:50.572Z,616.80
2023-05-11T05:17:52.773Z,553.17
2023-05-11T05:18:57.562Z,585.05
2023-05-11T05:19:59.674Z,631.90
2023-05-11T05:21:04.342Z,568.33
2023-05-11T05:22:06.467Z,674.50
2023-05-11T05:23:11.124Z,580.35
2023-05-11T05:24:15.781Z,600.75
2023-05-11T05:25:21.739Z,710.20
2023-05-11T05:26:23.801Z,724.50
2023-05-11T05:27:28.782Z,651.10
2023-05-11T05:28:30.848Z,590.10
2023-05-11T05:29:35.558Z,618.85
2023-05-11T05:30:37.664Z,633.42
2023-05-11T05:31:42.415Z,631.88
2023-05-11T05:32:44.583Z,621.58
2023-05-11T05:33:49.268Z,599.75
2023-05-11T05:34:51.400Z,648.92
2023-05-11T05:35:56.096Z,646.72
2023-05-11T05:36:58.148Z,646.53
2023-05-11T05:38:02.925Z,603.33
2023-05-11T05:39:09.072Z,538.83
2023-05-11T05:40:16.910Z,548.55
2023-05-11T05:41:19.452Z,682.85
2023-05-11T05:42:24.103Z,685.17
2023-05-11T05:43:26.150Z,653.30
2023-05-11T05:44:30.781Z,631.00
2023-05-11T05:45:32.813Z,587.90
2023-05-11T05:46:37.563Z,578.53
2023-05-11T05:47:40.181Z,668.42
2023-05-11T05:48:44.854Z,659.53
2023-05-11T05:49:46.959Z,650.20
2023-05-11T05:50:51.614Z,602.72
2023-05-11T05:51:53.707Z,594.25
2023-05-11T05:52:58.360Z,612.20
2023-05-11T05:54:00.563Z,694.65
2023-05-11T05:55:05.212Z,582.92
2023-05-11T05:56:10.366Z,624.30
2023-05-11T05:57:15.764Z,677.72
2023-05-11T05:58:18.026Z,558.17
2023-05-11T05:59:24.469Z,557.50
2023-05-11T06:00:26.499Z,726.92
2023-05-11T06:01:31.557Z,616.03
2023-05-11T06:02:33.677Z,594.17
2023-05-11T06:03:40.341Z,586.15
2023-05-11T06:04:45.289Z,620.22
2023-05-11T06:05:47.461Z,620.53
2023-05-11T06:06:52.211Z,691.15
2023-05-11T06:08:08.402Z,535.53
2023-05-11T06:09:14.262Z,590.30
2023-05-11T06:10:16.567Z,729.30
2023-05-11T06:11:24.230Z,662.75
2023-05-11T06:12:28.944Z,626.88
2023-05-11T06:13:30.997Z,808.90
2023-05-11T06:14:35.678Z,578.55
2023-05-11T06:15:37.980Z,607.30
2023-05-11T06:16:42.754Z,716.33
2023-05-11T06:17:44.994Z,604.28
2023-05-11T06:18:49.842Z,673.17
2023-05-11T06:19:52.511Z,620.45
2023-05-11T06:20:57.482Z,627.60
2023-05-11T06:22:04.276Z,676.45
2023-05-11T06:23:08.202Z,658.10
2023-05-11T06:24:12.875Z,590.35
2023-05-11T06:25:15.201Z,648.70
2023-05-11T06:26:19.867Z,627.58
2023-05-11T06:27:27.215Z,713.17
2023-05-11T06:28:30.224Z,684.17
2023-05-11T06:29:34.866Z,677.33
2023-05-11T06:30:36.885Z,598.88
2023-05-11T06:31:41.696Z,601.40
2023-05-11T06:32:43.856Z,589.38
2023-05-11T06:33:49.269Z,597.33
2023-05-11T06:34:51.292Z,587.28
2023-05-11T06:35:56.009Z,598.30
2023-05-11T06:36:59.409Z,596.95
2023-05-11T06:38:04.020Z,587.42
2023-05-11T06:39:07.062Z,592.75
2023-05-11T06:40:13.691Z,585.05
2023-05-11T06:41:15.750Z,606.88
2023-05-11T06:42:20.435Z,622.97
2023-05-11T06:43:25.386Z,645.70
2023-05-11T06:44:30.222Z,670.30
2023-05-11T06:45:34.974Z,625.17
2023-05-11T06:46:37.058Z,577.03
2023-05-11T06:47:41.854Z,547.92
2023-05-11T06:48:43.997Z,583.13
2023-05-11T06:49:48.779Z,600.50
2023-05-11T06:50:50.850Z,634.42
2023-05-11T06:51:55.647Z,619.20
2023-05-11T06:52:57.759Z,571.53
2023-05-11T06:54:02.593Z,681.05
2023-05-11T06:55:08.092Z,578.38
2023-05-11T06:56:10.676Z,587.67
2023-05-11T06:57:15.333Z,672.40
2023-05-11T06:58:20.712Z,605.90
2023-05-11T06:59:28.155Z,624.17
2023-05-11T07:00:30.201Z,642.03
2023-05-11T07:01:35.023Z,490.45
2023-05-11T07:02:37.152Z,543.35
2023-05-11T07:03:41.851Z,528.95
2023-05-11T07:04:43.925Z,589.33
2023-05-11T07:05:48.580Z,605.80
2023-05-11T07:06:50.681Z,760.15
2023-05-11T07:07:55.348Z,564.15
2023-05-11T07:08:57.481Z,578.88
2023-05-11T07:10:02.142Z,627.10
2023-05-11T07:11:04.246Z,939.90
2023-05-11T07:12:09.089Z,609.45
2023-05-11T07:13:11.310Z,817.28
2023-05-11T07:14:16.004Z,562.10
2023-05-11T07:15:21.009Z,588.35
2023-05-11T07:16:25.981Z,648.33
2023-05-11T07:17:28.866Z,637.38
2023-05-11T07:18:33.611Z,752.08
2023-05-11T07:19:38.278Z,663.95
2023-05-11T07:20:41.162Z,820.05
2023-05-11T07:21:45.863Z,573.05
2023-05-11T07:22:47.987Z,639.47
2023-05-11T07:23:52.779Z,1035.75
2023-05-11T07:24:54.834Z,861.92
2023-05-11T07:25:59.488Z,839.08
2023-05-11T07:27:04.108Z,889.35
2023-05-11T07:28:06.195Z,918.10
2023-05-11T07:29:10.868Z,915.25
2023-05-11T07:30:13.427Z,839.67
2023-05-11T07:31:20.894Z,552.30
2023-05-11T07:32:23.072Z,1040.95
2023-05-11T07:33:27.921Z,1141.00
2023-05-11T07:34:32.685Z,1063.95
2023-05-11T07:35:37.387Z,680.45
2023-05-11T07:36:39.471Z,897.10
2023-05-11T07:37:44.267Z,986.72
2023-05-11T07:38:46.626Z,662.47
2023-05-11T07:39:51.296Z,900.40
2023-05-11T07:40:55.962Z,426.90
2023-05-11T07:41:58.029Z,414.33
2023-05-11T07:43:02.727Z,425.52
2023-05-11T07:44:07.765Z,491.25
2023-05-11T07:45:13.327Z,426.85
2023-05-11T07:46:18.102Z,336.67
2023-05-11T07:47:23.738Z,647.53
2023-05-11T07:48:25.860Z,467.08
2023-05-11T07:49:40.026Z,574.15
2023-05-11T07:50:49.692Z,348.55
2023-05-11T07:51:52.770Z,466.73
2023-05-11T07:52:57.603Z,592.72
2023-05-11T07:53:59.664Z,555.95
2023-05-11T07:55:04.314Z,477.30
2023-05-11T07:56:07.056Z,413.50
2023-05-11T07:57:13.951Z,602.40
2023-05-11T07:58:16.144Z,644.13
2023-05-11T07:59:21.133Z,701.15
2023-05-11T08:00:23.563Z,749.08
2023-05-11T08:01:30.826Z,846.17
2023-05-11T08:02:33.062Z,756.95
2023-05-11T08:03:37.828Z,999.42
2023-05-11T08:04:40.853Z,878.42
2023-05-11T08:05:45.645Z,981.08
2023-05-11T08:06:47.831Z,1104.55
2023-05-11T08:07:52.562Z,1046.90
2023-05-11T08:08:54.632Z,1005.60
2023-05-11T08:09:59.401Z,1048.35
2023-05-11T08:11:04.508Z,898.88
2023-05-11T08:12:09.425Z,942.03
2023-05-11T08:13:11.560Z,1040.35
2023-05-11T08:14:17.393Z,1057.13
2023-05-11T08:15:20.018Z,958.95
2023-05-11T08:16:24.943Z,1031.20
2023-05-11T08:17:30.314Z,1229.97
2023-05-11T08:18:35.060Z,1114.10
2023-05-11T08:19:37.302Z,1160.57
2023-05-11T08:20:42.480Z,1730.45
2023-05-11T08:21:46.475Z,958.67
2023-05-11T08:22:51.160Z,999.08
2023-05-11T08:23:55.838Z,1184.60
2023-05-11T08:24:57.944Z,1126.55
2023-05-11T08:26:02.963Z,1143.10
2023-05-11T08:27:05.247Z,1212.35
2023-05-11T08:28:09.898Z,1047.68
2023-05-11T08:29:12.642Z,1156.78
2023-05-11T08:30:18.007Z,1221.03
2023-05-11T08:31:20.121Z,1196.88
2023-05-11T08:32:25.031Z,1203.88
2023-05-11T08:33:38.088Z,1284.38
2023-05-11T08:34:43.476Z,1168.45
2023-05-11T08:35:45.586Z,1104.85
2023-05-11T08:36:50.555Z,1063.05
2023-05-11T08:37:52.692Z,1002.75
2023-05-11T08:38:59.245Z,1191.47
2023-05-11T08:40:01.496Z,1165.10
2023-05-11T08:41:07.885Z,1230.63
2023-05-11T08:42:10.504Z,1177.97
2023-05-11T08:43:16.837Z,1104.00
2023-05-11T08:44:20.683Z,1212.57
2023-05-11T08:45:26.044Z,1163.80
2023-05-11T08:46:33.842Z,1200.20
2023-05-11T08:47:36.121Z,1145.32
2023-05-11T08:48:44.008Z,1122.50
2023-05-11T08:49:48.840Z,1041.55
2023-05-11T08:50:53.846Z,1052.57
2023-05-11T08:51:56.537Z,1186.43
2023-05-11T08:53:01.178Z,1012.13
2023-05-11T08:54:03.886Z,1138.00
2023-05-11T08:55:10.139Z,1163.93
2023-05-11T08:56:12.535Z,1117.25
2023-05-11T08:57:17.679Z,1044.80
2023-05-11T08:58:22.666Z,1181.25
2023-05-11T08:59:27.776Z,1184.25
2023-05-11T09:00:33.946Z,1167.38
2023-05-11T09:01:37.444Z,1185.75
2023-05-11T09:02:42.781Z,1048.75
2023-05-11T09:03:48.290Z,1089.57
2023-05-11T09:04:53.838Z,1161.07
2023-05-11T09:05:59.065Z,1150.82
2023-05-11T09:07:01.256Z,1142.43
2023-05-11T09:08:08.856Z,1245.45
2023-05-11T09:09:11.063Z,1197.97
2023-05-11T09:10:16.261Z,1191.70
2023-05-11T09:11:18.759Z,1262.53
2023-05-11T09:12:26.428Z,1155.78
2023-05-11T09:13:32.252Z,1377.93
2023-05-11T09:14:37.021Z,1282.70
2023-05-11T09:15:41.697Z,1215.45
2023-05-11T09:16:46.439Z,1235.85
2023-05-11T09:17:48.550Z,1151.28
2023-05-11T09:18:57.109Z,1067.32
2023-05-11T09:20:01.045Z,1147.78
2023-05-11T09:21:06.088Z,1120.00
2023-05-11T09:22:08.246Z,1178.50
2023-05-11T09:23:13.287Z,1135.47
2023-05-11T09:24:15.495Z,1141.65
2023-05-11T09:25:21.084Z,1139.88
2023-05-11T09:26:24.582Z,1141.40
2023-05-11T09:27:29.279Z,1178.00
2023-05-11T09:28:35.900Z,1244.80
2023-05-11T09:29:41.097Z,1158.35
2023-05-11T09:30:43.488Z,1303.47
2023-05-11T09:31:49.700Z,1222.90
2023-05-11T09:32:56.794Z,1072.38
2023-05-11T09:34:16.076Z,1238.47
2023-05-11T09:35:25.752Z,1231.85
2023-05-11T09:36:27.823Z,1169.80
2023-05-11T09:37:32.599Z,1264.30
2023-05-11T09:38:34.753Z,1313.43
2023-05-11T09:39:53.437Z,1163.15
2023-05-11T09:41:05.078Z,1249.35
2023-05-11T09:42:14.496Z,1193.60
2023-05-11T09:43:20.787Z,1207.68
2023-05-11T09:44:32.146Z,1030.85
2023-05-11T09:45:41.836Z,1233.57
2023-05-11T09:46:48.832Z,1268.70
2023-05-11T09:47:50.951Z,1126.80
2023-05-11T09:49:02.931Z,1251.47
2023-05-11T09:50:26.440Z,1180.22
2023-05-11T09:51:33.602Z,1179.93
2023-05-11T09:52:47.223Z,1196.78
2023-05-11T09:53:51.990Z,1205.32
2023-05-11T09:54:54.043Z,1170.47
2023-05-11T09:55:59.252Z,1203.38
2023-05-11T09:57:04.782Z,1193.05
2023-05-11T09:58:06.799Z,1106.95
2023-05-11T09:59:13.292Z,1080.70
2023-05-11T10:00:16.633Z,1209.88
2023-05-11T10:01:32.689Z,1210.65
2023-05-11T10:02:37.493Z,1153.53
2023-05-11T10:03:46.954Z,1373.68
2023-05-11T10:04:52.312Z,1264.53
2023-05-11T10:06:04.507Z,1254.63
2023-05-11T10:07:09.237Z,1267.82
2023-05-11T10:08:13.961Z,1230.10
2023-05-11T10:09:18.733Z,1199.38
2023-05-11T10:10:23.502Z,1265.55
2023-05-11T10:11:26.436Z,1203.22
2023-05-11T10:12:33.686Z,1156.53
2023-05-11T10:13:37.274Z,1267.50
2023-05-11T10:14:41.990Z,1267.45
2023-05-11T10:15:47.148Z,1137.93
2023-05-11T10:16:49.345Z,1157.53
2023-05-11T10:17:56.841Z,544.13
2023-05-11T10:18:59.544Z,935.72
2023-05-11T10:20:05.762Z,1125.65
2023-05-11T10:21:11.295Z,1161.10
2023-05-11T10:22:16.260Z,1245.90
2023-05-11T10:23:21.609Z,1194.63
2023-05-11T10:24:26.713Z,1125.85
2023-05-11T10:25:31.496Z,1308.22
2023-05-11T10:26:34.321Z,1220.50
2023-05-11T10:27:39.974Z,1168.47
2023-05-11T10:29:15.528Z,1027.53
2023-05-11T10:30:21.364Z,1177.68
2023-05-11T10:31:24.993Z,1200.55
2023-05-11T10:32:31.497Z,1157.90
2023-05-11T10:33:34.793Z,1310.43
2023-05-11T10:34:39.995Z,1264.72
2023-05-11T10:35:42.685Z,1214.00
2023-05-11T10:36:51.169Z,1240.32
2023-05-11T10:37:53.543Z,1189.32
2023-05-11T10:38:58.204Z,1227.30
2023-05-11T10:40:00.587Z,1196.72
2023-05-11T10:41:19.532Z,1202.85
2023-05-11T10:42:39.190Z,1199.82
2023-05-11T10:44:04.593Z,1274.25
2023-05-11T10:45:21.710Z,1113.30
2023-05-11T10:46:40.811Z,1230.18
2023-05-11T10:48:17.435Z,1185.05
2023-05-11T10:49:39.010Z,1251.60
2023-05-11T10:51:05.639Z,1276.95
2023-05-11T10:52:29.449Z,1221.95
2023-05-11T10:53:49.005Z,1203.93
2023-05-11T10:55:11.927Z,1153.75
2023-05-11T10:56:26.581Z,1076.50
2023-05-11T10:57:43.276Z,1240.65
2023-05-11T10:59:06.747Z,1315.18
2023-05-11T11:01:10.206Z,1188.10
2023-05-11T11:02:14.300Z,1204.38
2023-05-11T11:03:20.155Z,1218.28
2023-05-11T11:04:28.149Z,1203.65
2023-05-11T11:05:38.379Z,1258.15
2023-05-11T11:06:45.426Z,1314.63
2023-05-11T11:08:01.314Z,1231.53
2023-05-11T11:09:08.248Z,1177.40
2023-05-11T11:10:10.678Z,1253.18
2023-05-11T11:11:33.594Z,1201.10
2023-05-11T11:12:38.373Z,1217.88
2023-05-11T11:13:58.757Z,1320.78
2023-05-11T11:15:05.408Z,1263.47
2023-05-11T11:16:14.521Z,1214.93
2023-05-11T11:17:29.215Z,1230.18
2023-05-11T11:18:33.788Z,1298.15
2023-05-11T11:19:38.953Z,1293.85
2023-05-11T11:20:52.484Z,1651.28
2023-05-11T11:21:54.754Z,1231.13
2023-05-11T11:23:02.464Z,1243.95
2023-05-11T11:24:05.259Z,1251.65
2023-05-11T11:25:11.013Z,1256.78
2023-05-11T11:26:15.813Z,1163.75
2023-05-11T11:27:20.673Z,1298.50
2023-05-11T11:28:22.844Z,1216.90
2023-05-11T11:29:28.378Z,1258.57
2023-05-11T11:30:31.040Z,1255.90
2023-05-11T11:31:37.296Z,1227.13
2023-05-11T11:32:43.523Z,1321.35
2023-05-11T11:33:50.208Z,1333.60
2023-05-11T11:34:52.676Z,1233.97
2023-05-11T11:35:57.599Z,1219.78
2023-05-11T11:37:04.174Z,1238.93
2023-05-11T11:38:13.114Z,1216.47
2023-05-11T11:39:15.258Z,1271.45
2023-05-11T11:40:49.463Z,1257.05
2023-05-11T11:42:04.245Z,1199.15
2023-05-11T11:43:18.188Z,1222.30
2023-05-11T11:44:23.241Z,1197.90
2023-05-11T11:45:33.741Z,1203.50
2023-05-11T11:46:40.587Z,1205.28
2023-05-11T11:48:02.864Z,1232.93
2023-05-11T11:49:11.626Z,1390.43
2023-05-11T11:50:14.520Z,1242.38
2023-05-11T11:51:19.252Z,1236.47
2023-05-11T11:52:33.870Z,1285.32
2023-05-11T11:54:05.239Z,1191.88
2023-05-11T11:55:10.644Z,1136.82
2023-05-11T11:56:42.261Z,1225.82
2023-05-11T11:57:46.861Z,1298.72
2023-05-11T11:59:03.211Z,1330.70
2023-05-11T12:00:13.169Z,1151.63
2023-05-11T12:01:16.980Z,1157.72
2023-05-11T12:02:22.652Z,1278.40
2023-05-11T12:03:25.944Z,1202.60
2023-05-11T12:04:55.076Z,1185.20
2023-05-11T12:06:01.928Z,1181.80
2023-05-11T12:07:10.886Z,1258.93
2023-05-11T12:08:18.627Z,1225.93
2023-05-11T12:09:23.715Z,1199.35
2023-05-11T12:10:28.478Z,1288.15
2023-05-11T12:11:30.637Z,1222.30
2023-05-11T12:12:36.333Z,1223.82
2023-05-11T12:13:39.733Z,1389.88
2023-05-11T12:14:49.362Z,1285.15
2023-05-11T12:16:07.578Z,1292.65
2023-05-11T12:17:16.639Z,1256.75
2023-05-11T12:18:21.994Z,1383.93
2023-05-11T12:19:28.482Z,1332.53
2023-05-11T12:20:33.171Z,1999.90
2023-05-11T12:21:35.279Z,1299.88
2023-05-11T12:22:40.115Z,1291.18
2023-05-11T12:23:52.977Z,1411.45
2023-05-11T12:25:08.224Z,1256.60
2023-05-11T12:26:10.336Z,1262.53
2023-05-11T12:27:15.235Z,1203.07
2023-05-11T12:28:22.755Z,1250.47
2023-05-11T12:29:25.260Z,1106.50
2023-05-11T12:30:32.019Z,1260.07
2023-05-11T12:31:36.096Z,1227.78
2023-05-11T12:32:40.814Z,1251.15
2023-05-11T12:33:45.959Z,1318.90
2023-05-11T12:35:00.506Z,1257.30
2023-05-11T12:36:02.653Z,1342.13
2023-05-11T12:37:09.578Z,1147.97
2023-05-11T12:38:11.977Z,1169.43
2023-05-11T12:39:21.085Z,1312.72
2023-05-11T12:40:28.565Z,1260.28
2023-05-11T12:41:30.782Z,1259.78
2023-05-11T12:42:35.538Z,1348.43
2023-05-11T12:43:38.120Z,1219.05
2023-05-11T12:44:43.708Z,1139.20
2023-05-11T12:45:46.199Z,1372.75
2023-05-11T12:46:52.222Z,1330.30
2023-05-11T12:47:55.595Z,1311.03
2023-05-11T12:49:01.435Z,1336.18
2023-05-11T12:50:03.791Z,1237.00
2023-05-11T12:51:08.523Z,1189.20
2023-05-11T12:52:13.393Z,1304.72
2023-05-11T12:53:17.807Z,1250.82
2023-05-11T12:54:41.263Z,1141.35
2023-05-11T12:55:59.900Z,1437.30
2023-05-11T12:57:05.707Z,1209.00
2023-05-11T12:58:09.148Z,1192.13
2023-05-11T12:59:27.223Z,1221.28
2023-05-11T13:00:31.958Z,1358.05
2023-05-11T13:01:37.195Z,1232.85
2023-05-11T13:02:52.208Z,1326.97
2023-05-11T13:03:54.694Z,1348.85
2023-05-11T13:04:59.356Z,1253.82
2023-05-11T13:06:05.805Z,1239.20
2023-05-11T13:07:10.977Z,1307.43
2023-05-11T13:08:14.886Z,1317.63
2023-05-11T13:09:25.200Z,1209.82
2023-05-11T13:10:30.843Z,1264.18
2023-05-11T13:11:36.151Z,1265.38
2023-05-11T13:12:51.933Z,1284.28
2023-05-11T13:13:55.598Z,1330.15
2023-05-11T13:15:12.991Z,1401.93
2023-05-11T13:16:27.533Z,1335.70
2023-05-11T13:17:31.491Z,1228.97
2023-05-11T13:18:36.494Z,1276.10
2023-05-11T13:19:39.685Z,1242.65
2023-05-11T13:20:45.199Z,1715.93
2023-05-11T13:21:47.229Z,1354.03
2023-05-11T13:22:53.093Z,1326.43
2023-05-11T13:23:55.588Z,1494.80
2023-05-11T13:25:06.658Z,1254.28
2023-05-11T13:26:11.448Z,1276.35
2023-05-11T13:27:18.751Z,1233.30
2023-05-11T13:28:25.534Z,1274.18
2023-05-11T13:29:28.001Z,1326.90
2023-05-11T13:30:34.906Z,1252.38
2023-05-11T13:31:43.150Z,1308.22
2023-05-11T13:32:47.904Z,1369.68
2023-05-11T13:33:51.603Z,1283.22